createdAt,value
2019-06-08T00:01:28.293Z,98972.39
2019-06-08T00:03:58.389Z,98987.95
2019-06-08T00:06:28.416Z,98987.95
2019-06-08T00:08:58.324Z,98987.80
2019-06-08T00:11:28.185Z,98987.16
2019-06-08T00:13:58.061Z,98990.34
2019-06-08T00:16:28.063Z,98986.51
2019-06-08T00:18:58.183Z,98989.22
2019-06-08T00:21:28.186Z,98989.67
2019-06-08T00:23:59.386Z,98985.57
2019-06-08T00:26:29.388Z,98992.57
2019-06-08T00:28:59.390Z,98997.73
2019-06-08T00:31:29.396Z,98991.53
2019-06-08T00:33:59.412Z,99009.86
2019-06-08T00:36:29.394Z,99008.56
2019-06-08T00:38:59.396Z,99011.13
2019-06-08T00:41:29.413Z,99018.98
2019-06-08T00:43:59.408Z,99013.25
2019-06-08T00:46:29.427Z,99022.01
2019-06-08T00:48:59.423Z,99019.09
2019-06-08T00:51:29.826Z,99024.35
2019-06-08T00:53:59.774Z,99026.36
2019-06-08T00:56:30.035Z,99032.19
2019-06-08T00:59:00.258Z,99035.41
2019-06-08T01:01:30.917Z,99041.75
2019-06-08T01:04:00.976Z,99050.30
2019-06-08T01:06:31.072Z,99051.53
2019-06-08T01:09:00.975Z,99048.17
2019-06-08T01:11:31.140Z,99055.28
2019-06-08T01:14:01.101Z,99064.83
2019-06-08T01:16:31.133Z,99065.42
2019-06-08T01:19:01.109Z,99071.77
2019-06-08T01:21:31.128Z,99071.41
2019-06-08T01:24:00.987Z,99072.75
2019-06-08T01:26:31.090Z,99078.08
2019-06-08T01:29:01.117Z,99076.55
2019-06-08T01:31:31.141Z,99072.36
2019-06-08T01:34:01.022Z,99080.34
2019-06-08T01:36:31.292Z,99079.86
2019-06-08T01:39:01.358Z,99083.16
2019-06-08T01:41:31.714Z,99080.48
2019-06-08T01:44:01.730Z,99084.64
2019-06-08T01:46:32.405Z,99091.61
2019-06-08T01:49:02.323Z,99092.87
2019-06-08T01:51:32.748Z,99094.19
2019-06-08T01:54:02.838Z,99085.77
2019-06-08T01:56:33.387Z,99098.58
2019-06-08T01:59:03.661Z,99103.53
2019-06-08T02:01:34.163Z,99105.61
2019-06-08T02:04:04.623Z,99118.69
2019-06-08T02:06:34.772Z,99114.98
2019-06-08T02:09:07.619Z,99119.48
2019-06-08T02:11:37.861Z,99120.27
2019-06-08T02:14:07.860Z,99128.53
2019-06-08T02:16:37.870Z,99119.80
2019-06-08T02:19:07.878Z,99122.67
2019-06-08T02:21:39.022Z,99123.49
2019-06-08T02:24:08.961Z,99127.34
2019-06-08T02:26:39.720Z,99132.53
2019-06-08T02:29:09.790Z,99128.36
2019-06-08T02:31:39.692Z,99140.06
2019-06-08T02:34:09.696Z,99140.87
2019-06-08T02:36:40.803Z,99148.30
2019-06-08T02:39:11.147Z,99144.28
2019-06-08T02:41:41.005Z,99137.09
2019-06-08T02:44:11.147Z,99140.34
2019-06-08T02:46:41.015Z,99152.45
2019-06-08T02:49:10.907Z,99148.20
2019-06-08T02:51:41.344Z,99142.80
2019-06-08T02:54:13.185Z,99156.09
2019-06-08T02:56:44.258Z,99161.34
2019-06-08T02:59:16.029Z,99153.19
2019-06-08T03:01:48.587Z,99154.44
2019-06-08T03:04:19.998Z,99162.30
2019-06-08T03:06:52.337Z,99168.00
2019-06-08T03:09:23.834Z,99158.52
2019-06-08T03:11:56.656Z,99164.77
2019-06-08T03:14:31.059Z,99163.61
2019-06-08T03:17:01.641Z,99171.98
2019-06-08T03:19:33.344Z,99179.16
2019-06-08T03:22:03.921Z,99171.09
2019-06-08T03:24:34.871Z,99162.61
2019-06-08T03:27:06.263Z,99173.20
2019-06-08T03:29:37.626Z,99173.68
2019-06-08T03:32:09.148Z,99172.82
2019-06-08T03:34:46.023Z,99168.60
2019-06-08T03:37:11.421Z,99174.25
2019-06-08T03:39:43.093Z,99184.30
2019-06-08T03:42:13.540Z,99188.59
2019-06-08T03:44:45.118Z,99177.08
2019-06-08T03:47:15.516Z,99194.09
2019-06-08T03:49:54.923Z,99194.36
2019-06-08T03:52:18.585Z,99199.66
2019-06-08T03:54:49.188Z,99203.58
2019-06-08T03:57:19.591Z,99205.84
2019-06-08T03:59:50.149Z,99208.05
2019-06-08T04:02:21.114Z,99205.20
2019-06-08T04:04:52.086Z,99206.42
2019-06-08T04:07:22.917Z,99212.66
2019-06-08T04:09:53.397Z,99212.61
2019-06-08T04:12:23.685Z,99214.06
2019-06-08T04:14:54.239Z,99217.86
2019-06-08T04:17:24.755Z,99227.52
2019-06-08T04:20:09.746Z,99215.03
2019-06-08T04:22:27.381Z,99220.39
2019-06-08T04:24:57.850Z,99218.50
2019-06-08T04:27:28.572Z,99217.22
2019-06-08T04:29:58.982Z,99221.57
2019-06-08T04:32:29.655Z,99231.45
2019-06-08T04:35:00.392Z,99231.65
2019-06-08T04:37:31.471Z,99227.66
2019-06-08T04:40:01.944Z,99233.20
2019-06-08T04:42:32.428Z,99237.02
2019-06-08T04:45:03.311Z,99245.87
2019-06-08T04:47:33.879Z,99231.87
2019-06-08T04:50:21.720Z,99246.34
2019-06-08T04:52:38.887Z,99253.28
2019-06-08T04:55:10.470Z,99252.73
2019-06-08T04:57:41.922Z,99262.56
2019-06-08T05:00:13.715Z,99265.08
2019-06-08T05:02:46.228Z,99275.16
2019-06-08T05:05:17.073Z,99274.38
2019-06-08T05:07:48.522Z,99283.69
2019-06-08T05:10:20.243Z,99274.89
2019-06-08T05:12:51.278Z,99277.56
2019-06-08T05:15:22.306Z,99285.54
2019-06-08T05:17:52.878Z,99262.33
2019-06-08T05:20:37.559Z,99294.10
2019-06-08T05:22:55.311Z,99296.20
2019-06-08T05:25:25.982Z,99277.28
2019-06-08T05:27:56.809Z,99268.69
2019-06-08T05:30:28.233Z,99295.25
2019-06-08T05:32:59.095Z,99294.27
2019-06-08T05:35:29.814Z,99311.41
2019-06-08T05:38:00.666Z,99302.97
2019-06-08T05:40:32.241Z,99312.16
2019-06-08T05:43:02.848Z,99322.59
2019-06-08T05:45:33.354Z,99325.41
2019-06-08T05:48:04.165Z,99327.38
2019-06-08T05:50:34.886Z,99336.02
2019-06-08T05:53:05.863Z,99328.33
2019-06-08T05:55:36.425Z,99337.02
2019-06-08T05:58:07.321Z,99341.16
2019-06-08T06:00:37.900Z,99340.80
2019-06-08T06:03:08.836Z,99345.24
2019-06-08T06:05:52.156Z,99343.31
2019-06-08T06:08:22.923Z,99357.23
2019-06-08T06:10:53.523Z,99354.95
2019-06-08T06:13:24.855Z,99377.27
2019-06-08T06:15:55.467Z,99355.76
2019-06-08T06:18:26.053Z,99369.98
2019-06-08T06:21:09.897Z,99386.16
2019-06-08T06:23:29.053Z,99375.00
2019-06-08T06:25:59.661Z,99391.08
2019-06-08T06:28:30.453Z,99409.16
2019-06-08T06:31:01.458Z,99403.69
2019-06-08T06:33:32.269Z,99416.48
2019-06-08T06:36:02.974Z,99448.19
2019-06-08T06:38:33.595Z,99433.96
2019-06-08T06:41:04.325Z,99426.16
2019-06-08T06:43:35.317Z,99436.16
2019-06-08T06:46:05.995Z,99444.53
2019-06-08T06:48:36.393Z,99455.41
2019-06-08T06:51:07.228Z,99454.71
2019-06-08T06:53:37.613Z,99448.33
2019-06-08T06:56:08.031Z,99468.48
2019-06-08T06:58:42.985Z,99456.60
2019-06-08T07:01:13.911Z,99467.34
2019-06-08T07:03:46.059Z,99471.69
2019-06-08T07:06:16.677Z,99460.10
2019-06-08T07:08:48.241Z,99474.77
2019-06-08T07:11:19.330Z,99456.77
2019-06-08T07:13:50.842Z,99459.88
2019-06-08T07:16:21.490Z,99471.48
2019-06-08T07:18:52.674Z,99478.20
2019-06-08T07:21:23.091Z,99485.41
2019-06-08T07:23:55.904Z,99485.44
2019-06-08T07:26:26.174Z,99499.07
2019-06-08T07:28:56.892Z,99494.48
2019-06-08T07:31:27.497Z,99502.62
2019-06-08T07:33:59.695Z,99489.12
2019-06-08T07:36:30.871Z,99497.83
2019-06-08T07:39:01.237Z,99503.13
2019-06-08T07:41:31.954Z,99504.23
2019-06-08T07:44:02.545Z,99516.70
2019-06-08T07:46:32.821Z,99507.23
2019-06-08T07:49:04.038Z,99533.05
2019-06-08T07:51:34.706Z,99522.00
2019-06-08T07:54:05.233Z,99508.98
2019-06-08T07:56:35.847Z,99518.66
2019-06-08T07:59:06.192Z,99506.73
2019-06-08T08:01:36.790Z,99520.53
2019-06-08T08:04:07.775Z,99527.36
2019-06-08T08:06:38.504Z,99520.40
2019-06-08T08:09:09.892Z,99516.80
2019-06-08T08:11:40.421Z,99525.04
2019-06-08T08:14:11.209Z,99540.02
2019-06-08T08:16:41.856Z,99532.62
2019-06-08T08:19:12.540Z,99538.38
2019-06-08T08:21:43.138Z,99534.60
2019-06-08T08:24:14.032Z,99524.34
2019-06-08T08:26:44.576Z,99545.72
2019-06-08T08:29:17.673Z,99540.28
2019-06-08T08:31:49.114Z,99541.29
2019-06-08T08:34:20.032Z,99541.92
2019-06-08T08:36:51.093Z,99541.68
2019-06-08T08:39:22.436Z,99542.34
2019-06-08T08:41:56.844Z,99545.00
2019-06-08T08:44:25.677Z,99544.28
2019-06-08T08:46:57.001Z,99558.48
2019-06-08T08:49:28.186Z,99560.61
2019-06-08T08:52:00.575Z,99566.83
2019-06-08T08:54:31.392Z,99561.76
2019-06-08T08:57:05.033Z,99559.17
2019-06-08T08:59:34.649Z,99554.88
2019-06-08T09:02:10.927Z,99566.16
2019-06-08T09:04:38.171Z,99573.67
2019-06-08T09:07:10.617Z,99549.67
2019-06-08T09:09:41.360Z,99551.38
2019-06-08T09:12:11.843Z,99578.28
2019-06-08T09:14:42.705Z,99569.47
2019-06-08T09:17:13.456Z,99575.03
2019-06-08T09:19:44.311Z,99573.31
2019-06-08T09:22:14.734Z,99586.34
2019-06-08T09:24:45.469Z,99589.25
2019-06-08T09:27:17.877Z,99583.61
2019-06-08T09:29:48.694Z,99579.66
2019-06-08T09:32:19.474Z,99589.77
2019-06-08T09:34:50.257Z,99582.74
2019-06-08T09:37:20.799Z,99584.96
2019-06-08T09:39:51.395Z,99597.53
2019-06-08T09:42:22.544Z,99594.33
2019-06-08T09:44:55.100Z,99588.89
2019-06-08T09:47:25.190Z,99586.91
2019-06-08T09:49:58.798Z,99597.52
2019-06-08T09:52:28.243Z,99588.59
2019-06-08T09:55:02.312Z,99596.78
2019-06-08T09:57:31.322Z,99593.05
2019-06-08T10:00:08.675Z,99575.68
2019-06-08T10:02:34.804Z,99585.37
2019-06-08T10:05:06.387Z,99582.20
2019-06-08T10:07:38.879Z,99604.86
2019-06-08T10:10:10.445Z,99584.94
2019-06-08T10:12:41.378Z,99589.19
2019-06-08T10:15:12.797Z,99590.41
2019-06-08T10:17:43.267Z,99598.22
2019-06-08T10:20:14.199Z,99592.92
2019-06-08T10:22:44.656Z,99587.67
2019-06-08T10:25:15.810Z,99596.37
2019-06-08T10:27:46.496Z,99577.08
2019-06-08T10:30:17.583Z,99592.62
2019-06-08T10:32:50.762Z,99590.16
2019-06-08T10:35:21.074Z,99616.61
2019-06-08T10:37:55.077Z,99602.70
2019-06-08T10:40:24.155Z,99606.51
2019-06-08T10:42:54.770Z,99615.11
2019-06-08T10:45:25.618Z,99607.98
2019-06-08T10:47:59.341Z,99626.70
2019-06-08T10:50:30.271Z,99621.44
2019-06-08T10:53:03.650Z,99630.13
2019-06-08T10:55:33.428Z,99616.71
2019-06-08T10:58:04.522Z,99635.94
2019-06-08T11:00:35.586Z,99633.64
2019-06-08T11:03:09.730Z,99645.73
2019-06-08T11:05:38.086Z,99637.38
2019-06-08T11:08:12.969Z,99673.45
2019-06-08T11:10:40.971Z,99644.94
2019-06-08T11:13:14.954Z,99639.49
2019-06-08T11:15:43.790Z,99631.36
2019-06-08T11:18:14.046Z,99641.42
2019-06-08T11:20:44.574Z,99636.45
2019-06-08T11:23:15.339Z,99654.99
2019-06-08T11:25:45.813Z,99661.99
2019-06-08T11:28:18.554Z,99640.84
2019-06-08T11:30:48.954Z,99653.50
2019-06-08T11:33:19.555Z,99655.37
2019-06-08T11:35:50.357Z,99665.02
2019-06-08T11:38:20.951Z,99677.29
2019-06-08T11:40:51.435Z,99672.03
2019-06-08T11:43:22.035Z,99684.80
2019-06-08T11:45:52.757Z,99675.59
2019-06-08T11:48:23.272Z,99675.63
2019-06-08T11:50:53.832Z,99676.17
2019-06-08T11:53:24.472Z,99685.45
2019-06-08T11:55:58.604Z,99689.09
2019-06-08T11:58:30.756Z,99697.66
2019-06-08T12:01:05.477Z,99702.51
2019-06-08T12:03:38.763Z,99697.77
2019-06-08T12:06:12.921Z,99706.73
2019-06-08T12:08:41.480Z,99687.38
2019-06-08T12:11:17.275Z,99727.62
2019-06-08T12:13:44.494Z,99683.98
2019-06-08T12:16:19.545Z,99683.40
2019-06-08T12:18:49.168Z,99679.56
2019-06-08T12:21:20.130Z,99676.94
2019-06-08T12:23:50.735Z,99695.71
2019-06-08T12:26:21.508Z,99683.08
2019-06-08T12:28:51.942Z,99695.05
2019-06-08T12:31:22.897Z,99703.87
2019-06-08T12:33:53.552Z,99699.59
2019-06-08T12:36:24.462Z,99704.67
2019-06-08T12:38:55.544Z,99701.66
2019-06-08T12:41:28.922Z,99704.98
2019-06-08T12:43:58.956Z,99697.95
2019-06-08T12:46:29.548Z,99707.94
2019-06-08T12:49:00.466Z,99688.33
2019-06-08T12:51:31.316Z,99704.50
2019-06-08T12:54:01.848Z,99710.47
2019-06-08T12:56:32.399Z,99692.74
2019-06-08T12:59:03.121Z,99695.98
2019-06-08T13:01:33.843Z,99703.37
2019-06-08T13:04:04.680Z,99697.81
2019-06-08T13:06:35.097Z,99688.65
2019-06-08T13:09:08.984Z,99712.27
2019-06-08T13:11:38.643Z,99687.44
2019-06-08T13:14:10.261Z,99692.41
2019-06-08T13:16:41.686Z,99687.11
2019-06-08T13:19:13.129Z,99701.45
2019-06-08T13:21:44.299Z,99688.91
2019-06-08T13:24:15.625Z,99701.47
2019-06-08T13:26:50.395Z,99708.50
2019-06-08T13:29:20.156Z,99702.34
2019-06-08T13:31:50.548Z,99692.55
2019-06-08T13:34:24.283Z,99690.99
2019-06-08T13:36:53.428Z,99697.40
2019-06-08T13:39:24.027Z,99701.70
2019-06-08T13:41:54.436Z,99690.97
2019-06-08T13:44:27.658Z,99681.37
2019-06-08T13:46:57.907Z,99673.59
2019-06-08T13:49:30.778Z,99677.26
2019-06-08T13:52:01.030Z,99690.38
2019-06-08T13:54:32.000Z,99680.74
2019-06-08T13:57:02.796Z,99685.98
2019-06-08T13:59:33.287Z,99702.05
2019-06-08T14:02:04.477Z,99703.19
2019-06-08T14:04:39.436Z,99690.73
2019-06-08T14:07:08.350Z,99683.53
2019-06-08T14:09:38.805Z,99687.77
2019-06-08T14:12:09.643Z,99689.09
2019-06-08T14:14:40.127Z,99688.84
2019-06-08T14:17:10.736Z,99688.13
2019-06-08T14:19:41.390Z,99694.03
2019-06-08T14:22:11.977Z,99676.46
2019-06-08T14:24:42.675Z,99673.52
2019-06-08T14:27:13.494Z,99679.52
2019-06-08T14:29:44.024Z,99659.70
2019-06-08T14:32:17.555Z,99675.22
2019-06-08T14:34:47.986Z,99677.44
2019-06-08T14:37:17.994Z,99681.72
2019-06-08T14:39:48.816Z,99668.63
2019-06-08T14:42:24.643Z,99671.48
2019-06-08T14:44:52.027Z,99671.77
2019-06-08T14:47:22.791Z,99670.55
2019-06-08T14:49:53.109Z,99680.53
2019-06-08T14:52:25.262Z,99682.27
2019-06-08T14:54:58.506Z,99679.69
2019-06-08T14:57:28.249Z,99689.14
2019-06-08T15:00:00.084Z,99684.47
2019-06-08T15:02:31.485Z,99672.22
2019-06-08T15:05:02.168Z,99656.30
2019-06-08T15:07:32.889Z,99660.56
2019-06-08T15:10:03.326Z,99663.11
2019-06-08T15:12:33.737Z,99651.43
2019-06-08T15:15:04.652Z,99674.45
2019-06-08T15:17:35.182Z,99665.09
2019-06-08T15:20:08.808Z,99664.00
2019-06-08T15:22:39.334Z,99667.73
2019-06-08T15:25:11.063Z,99662.30
2019-06-08T15:27:42.370Z,99664.39
2019-06-08T15:30:17.463Z,99657.05
2019-06-08T15:32:48.079Z,99656.05
2019-06-08T15:35:18.757Z,99662.11
2019-06-08T15:37:48.465Z,99677.58
2019-06-08T15:40:19.196Z,99661.56
2019-06-08T15:42:49.953Z,99653.58
2019-06-08T15:45:21.867Z,99652.75
2019-06-08T15:47:52.552Z,99659.28
2019-06-08T15:50:24.174Z,99647.75
2019-06-08T15:52:54.129Z,99655.66
2019-06-08T15:55:24.958Z,99650.13
2019-06-08T15:57:55.558Z,99656.11
2019-06-08T16:00:28.359Z,99650.34
2019-06-08T16:02:58.384Z,99647.89
2019-06-08T16:05:29.618Z,99651.19
2019-06-08T16:08:00.242Z,99652.89
2019-06-08T16:10:30.608Z,99654.14
2019-06-08T16:13:01.572Z,99650.41
2019-06-08T16:15:33.361Z,99650.52
2019-06-08T16:18:03.070Z,99650.50
2019-06-08T16:20:33.678Z,99656.52
2019-06-08T16:23:04.033Z,99647.31
2019-06-08T16:25:38.374Z,99654.59
2019-06-08T16:28:06.885Z,99643.32
2019-06-08T16:30:37.269Z,99651.64
2019-06-08T16:33:07.629Z,99650.23
2019-06-08T16:35:38.055Z,99662.23
2019-06-08T16:38:08.437Z,99643.92
2019-06-08T16:40:38.787Z,99654.95
2019-06-08T16:43:09.630Z,99648.30
2019-06-08T16:45:40.491Z,99651.69
2019-06-08T16:48:11.792Z,99642.98
2019-06-08T16:50:42.276Z,99648.44
2019-06-08T16:53:13.052Z,99652.09
2019-06-08T16:55:43.837Z,99653.96
2019-06-08T16:58:14.242Z,99659.20
2019-06-08T17:00:44.683Z,99666.01
2019-06-08T17:03:14.866Z,99668.74
2019-06-08T17:05:45.458Z,99668.98
2019-06-08T17:08:15.649Z,99674.15
2019-06-08T17:10:46.135Z,99659.94
2019-06-08T17:13:16.769Z,99678.30
2019-06-08T17:15:47.814Z,99664.19
2019-06-08T17:18:18.302Z,99674.19
2019-06-08T17:20:48.895Z,99668.42
2019-06-08T17:23:19.907Z,99676.84
2019-06-08T17:25:50.486Z,99667.91
2019-06-08T17:28:20.869Z,99678.11
2019-06-08T17:30:51.476Z,99675.19
2019-06-08T17:33:22.023Z,99680.15
2019-06-08T17:35:52.388Z,99665.33
2019-06-08T17:38:22.914Z,99674.17
2019-06-08T17:40:53.470Z,99673.30
2019-06-08T17:43:24.429Z,99673.75
2019-06-08T17:45:54.820Z,99679.61
2019-06-08T17:48:25.201Z,99672.75
2019-06-08T17:50:55.752Z,99676.36
2019-06-08T17:53:26.609Z,99676.34
2019-06-08T17:55:56.874Z,99671.21
2019-06-08T17:58:27.321Z,99675.13
2019-06-08T18:00:57.928Z,99677.52
2019-06-08T18:03:28.409Z,99675.10
2019-06-08T18:05:59.249Z,99673.60
2019-06-08T18:08:29.972Z,99674.93
2019-06-08T18:11:00.686Z,99676.32
2019-06-08T18:13:31.531Z,99672.08
2019-06-08T18:16:02.011Z,99679.19
2019-06-08T18:18:32.619Z,99676.87
2019-06-08T18:21:03.273Z,99681.94
2019-06-08T18:23:34.287Z,99679.99
2019-06-08T18:26:04.928Z,99686.39
2019-06-08T18:28:37.122Z,99672.50
2019-06-08T18:31:07.827Z,99677.31
2019-06-08T18:33:41.210Z,99686.94
2019-06-08T18:36:10.712Z,99684.95
2019-06-08T18:38:42.955Z,99688.13
2019-06-08T18:41:13.548Z,99691.64
2019-06-08T18:43:45.413Z,99684.17
2019-06-08T18:46:17.963Z,99694.97
2019-06-08T18:48:49.335Z,99691.74
2019-06-08T18:51:20.155Z,99696.52
2019-06-08T18:54:07.394Z,99691.54
2019-06-08T18:56:22.969Z,99694.45
2019-06-08T18:58:53.863Z,99694.72
2019-06-08T19:01:24.607Z,99693.52
2019-06-08T19:03:57.750Z,99694.56
2019-06-08T19:06:27.967Z,99697.11
2019-06-08T19:08:58.977Z,99698.91
2019-06-08T19:11:29.566Z,99704.08
2019-06-08T19:14:00.158Z,99702.01
2019-06-08T19:16:30.856Z,99699.13
2019-06-08T19:19:01.882Z,99702.51
2019-06-08T19:21:32.536Z,99708.08
2019-06-08T19:24:03.055Z,99707.56
2019-06-08T19:26:33.556Z,99711.61
2019-06-08T19:29:03.980Z,99720.07
2019-06-08T19:31:34.541Z,99720.79
2019-06-08T19:34:07.505Z,99731.14
2019-06-08T19:36:39.986Z,99734.69
2019-06-08T19:39:10.113Z,99734.29
2019-06-08T19:41:41.506Z,99728.89
2019-06-08T19:44:12.210Z,99732.41
2019-06-08T19:46:43.042Z,99730.70
2019-06-08T19:49:13.413Z,99726.26
2019-06-08T19:51:45.010Z,99727.59
2019-06-08T19:54:15.100Z,99731.00
2019-06-08T19:56:52.139Z,99733.67
2019-06-08T19:59:18.254Z,99731.48
2019-06-08T20:01:56.031Z,99730.20
2019-06-08T20:04:20.861Z,99738.85
2019-06-08T20:06:50.872Z,99749.09
2019-06-08T20:09:21.336Z,99750.83
2019-06-08T20:11:55.458Z,99756.11
2019-06-08T20:14:23.252Z,99758.47
2019-06-08T20:16:53.236Z,99760.59
2019-06-08T20:19:23.360Z,99765.86
2019-06-08T20:21:53.538Z,99768.14
2019-06-08T20:24:23.490Z,99771.78
2019-06-08T20:26:54.796Z,99772.20
2019-06-08T20:29:27.908Z,99773.77
2019-06-08T20:31:58.242Z,99774.19
2019-06-08T20:34:27.811Z,99777.09
2019-06-08T20:37:01.293Z,99774.70
2019-06-08T20:39:29.374Z,99771.95
2019-06-08T20:41:59.254Z,99779.91
2019-06-08T20:44:30.289Z,99789.83
2019-06-08T20:47:00.336Z,99790.28
2019-06-08T20:49:30.240Z,99781.94
2019-06-08T20:52:00.575Z,99788.59
2019-06-08T20:54:30.586Z,99792.55
2019-06-08T20:57:00.583Z,99792.17
2019-06-08T20:59:33.995Z,99789.00
2019-06-08T21:02:02.181Z,99800.14
2019-06-08T21:04:32.155Z,99801.53
2019-06-08T21:07:02.308Z,99812.14
2019-06-08T21:09:32.156Z,99804.48
2019-06-08T21:12:02.289Z,99809.83
2019-06-08T21:14:32.156Z,99805.91
2019-06-08T21:17:02.182Z,99807.61
2019-06-08T21:19:32.160Z,99811.42
2019-06-08T21:22:02.074Z,99811.08
2019-06-08T21:24:32.043Z,99812.47
2019-06-08T21:27:01.931Z,99815.95
2019-06-08T21:29:46.948Z,99810.63
2019-06-08T21:32:03.489Z,99813.34
2019-06-08T21:34:33.373Z,99802.25
2019-06-08T21:37:03.387Z,99801.11
2019-06-08T21:39:36.087Z,99811.88
2019-06-08T21:42:04.814Z,99817.31
2019-06-08T21:44:37.085Z,99812.90
2019-06-08T21:47:07.873Z,99814.49
2019-06-08T21:49:38.552Z,99811.46
2019-06-08T21:52:08.788Z,99812.84
2019-06-08T21:54:38.668Z,99814.53
2019-06-08T21:57:09.681Z,99820.24
2019-06-08T21:59:39.869Z,99819.98
2019-06-08T22:02:10.475Z,99818.53
2019-06-08T22:04:40.360Z,99818.63
2019-06-08T22:07:10.353Z,99828.59
2019-06-08T22:09:40.354Z,99826.53
2019-06-08T22:12:10.372Z,99817.75
2019-06-08T22:14:40.243Z,99824.30
2019-06-08T22:17:10.301Z,99816.91
2019-06-08T22:19:40.257Z,99816.55
2019-06-08T22:22:10.459Z,99819.98
2019-06-08T22:24:40.376Z,99815.43
2019-06-08T22:27:10.273Z,99810.75
2019-06-08T22:29:40.131Z,99812.13
2019-06-08T22:32:10.282Z,99806.70
2019-06-08T22:34:40.133Z,99811.75
2019-06-08T22:37:10.287Z,99813.34
2019-06-08T22:39:40.136Z,99821.38
2019-06-08T22:42:10.047Z,99823.23
2019-06-08T22:44:39.900Z,99817.81
2019-06-08T22:47:09.782Z,99813.77
2019-06-08T22:49:39.675Z,99810.45
2019-06-08T22:52:09.543Z,99818.09
2019-06-08T22:54:39.428Z,99816.59
2019-06-08T22:57:09.450Z,99810.59
2019-06-08T22:59:39.434Z,99812.55
2019-06-08T23:02:09.549Z,99812.43
2019-06-08T23:04:39.450Z,99800.62
2019-06-08T23:07:17.739Z,99803.07
2019-06-08T23:09:40.877Z,99798.41
2019-06-08T23:12:10.803Z,99805.90
2019-06-08T23:14:40.780Z,99811.28
2019-06-08T23:17:10.646Z,99809.81
2019-06-08T23:19:40.645Z,99812.86
2019-06-08T23:22:10.527Z,99812.03
2019-06-08T23:24:40.407Z,99816.42
2019-06-08T23:27:10.313Z,99812.47
2019-06-08T23:29:40.166Z,99814.17
2019-06-08T23:32:11.757Z,99815.14
2019-06-08T23:34:41.615Z,99817.82
2019-06-08T23:37:12.831Z,99818.78
2019-06-08T23:39:43.060Z,99817.05
2019-06-08T23:42:13.182Z,99811.42
2019-06-08T23:44:43.175Z,99804.53
2019-06-08T23:47:13.064Z,99809.08
2019-06-08T23:49:43.183Z,99806.84
2019-06-08T23:52:13.064Z,99803.00
2019-06-08T23:54:43.189Z,99807.42
2019-06-08T23:57:13.077Z,99802.13
2019-06-08T23:59:47.818Z,99797.45
